14°C Temp
-2°C Dewpoint
33% Humidity
Temperature
24 KM/H
15 MPH
13 KTS
250°
West South
West

Wind Speed
Clear
Conditions
Pressure 1006.92 (hPa) - 29.73 (in)
Visibility 6.2 (mi) - 10.0 (km)

Current Conditions
SAEZ
Location 120km(km)
Metar :SAEZ 151900Z 25013KT CAVOK 14/M02 Q1007 NOSIG RMK PP000
Mon 15th August 16:00 pm

Airport
  Metar Aviation API Data Provided by https://www.checkwx.com/ PHP scripts by weather34.com ©2022